Time;durP1;ratioP1;P1;durP2;ratioP2;P2;SDS_P1;SDS_P2;PMS_P1;PMS_P2;Temp;Humidity;BMP_temperature;BMP_pressure;BME280_temperature;BME280_humidity;BME280_pressure;Samples;Min_cycle;Max_cycle;Signal;HPM_P1;HPM_P2
2023/06/10 00:02:04;;;;;;;10.45;9.15;;;;;;;;;;5017337;28;20046;-77
2023/06/10 00:04:29;;;;;;;12.95;10.00;;;;;;;;;;5011943;28;20038;-81
2023/06/10 00:06:55;;;;;;;13.95;9.02;;;;;;;;;;5017373;28;20045;-81
2023/06/10 00:09:21;;;;;;;9.43;7.85;;;;;;;;;;5019707;28;20018;-80
2023/06/10 00:11:47;;;;;;;10.68;8.48;;;;;;;;;;5019749;28;20479;-82
2023/06/10 00:14:12;;;;;;;10.35;8.10;;;;;;;;;;5017625;28;20120;-81
2023/06/10 00:16:38;;;;;;;11.82;8.52;;;;;;;;;;5016508;28;20500;-82
2023/06/10 00:19:04;;;;;;;13.07;9.27;;;;;;;;;;5018975;28;20092;-81
2023/06/10 00:21:39;;;;;;;13.13;8.48;;;;;;;;;;5018884;28;20037;-82
2023/06/10 00:24:05;;;;;;;9.65;8.07;;;;;;;;;;5019384;28;20510;-81
2023/06/10 00:26:32;;;;;;;11.30;9.18;;;;;;;;;;5019704;28;20050;-81
2023/06/10 00:28:57;;;;;;;10.10;8.70;;;;;;;;;;5015037;28;20423;-82
2023/06/10 00:31:22;;;;;;;10.93;8.93;;;;;;;;;;5009904;28;20053;-81
2023/06/10 00:33:47;;;;;;;13.45;9.57;;;;;;;;;;5012135;28;20388;-81
2023/06/10 00:36:13;;;;;;;11.80;9.70;;;;;;;;;;5016285;28;20088;-80
2023/06/10 00:38:40;;;;;;;13.35;9.52;;;;;;;;;;5013120;28;20029;-83
2023/06/10 00:41:05;;;;;;;11.88;9.57;;;;;;;;;;5011073;28;20066;-81
2023/06/10 00:43:30;;;;;;;17.50;9.75;;;;;;;;;;5012327;28;20054;-82
2023/06/10 00:45:56;;;;;;;17.00;9.05;;;;;;;;;;5019537;28;20080;-83
2023/06/10 00:48:21;;;;;;;13.52;10.05;;;;;;;;;;5019477;28;20084;-81
2023/06/10 00:50:47;;;;;;;10.48;8.70;;;;;;;;;;5016619;28;20072;-82
2023/06/10 00:53:12;;;;;;;13.60;9.35;;;;;;;;;;5016936;28;20034;-80
2023/06/10 00:55:39;;;;;;;12.05;8.80;;;;;;;;;;5025059;28;20025;-82
2023/06/10 00:58:05;;;;;;;12.55;9.55;;;;;;;;;;5021387;28;20048;-82
2023/06/10 01:00:30;;;;;;;16.35;10.05;;;;;;;;;;5020086;28;20054;-81
2023/06/10 01:02:55;;;;;;;17.52;9.82;;;;;;;;;;5020184;28;20029;-80
2023/06/10 01:05:23;;;;;;;19.00;9.48;;;;;;;;;;5027444;28;20222;-81
2023/06/10 01:07:55;;;;;;;14.98;11.57;;;;;;;;;;5017997;28;20030;-81
2023/06/10 01:10:37;;;;;;;11.80;10.50;;;;;;;;;;5019902;28;20033;-82
2023/06/10 01:13:08;;;;;;;16.35;10.75;;;;;;;;;;5019107;28;20037;-80
2023/06/10 01:15:34;;;;;;;12.55;10.75;;;;;;;;;;5019336;28;20034;-83
2023/06/10 01:18:03;;;;;;;14.20;10.80;;;;;;;;;;5019349;28;20018;-82
2023/06/10 01:20:31;;;;;;;11.90;10.18;;;;;;;;;;5019461;28;20041;-83
2023/06/10 01:22:58;;;;;;;13.07;10.00;;;;;;;;;;5018938;28;20038;-82
2023/06/10 01:25:28;;;;;;;12.45;10.35;;;;;;;;;;5018502;28;20097;-83
2023/06/10 01:28:05;;;;;;;14.65;10.77;;;;;;;;;;5019221;28;20115;-81
2023/06/10 01:30:37;;;;;;;12.98;10.30;;;;;;;;;;5019520;28;20041;-83
2023/06/10 01:33:07;;;;;;;12.63;10.02;;;;;;;;;;5020038;28;20085;-81
2023/06/10 01:35:35;;;;;;;12.00;9.93;;;;;;;;;;5019847;28;20052;-83
2023/06/10 01:38:02;;;;;;;16.02;11.60;;;;;;;;;;5017449;28;20026;-81
2023/06/10 01:40:29;;;;;;;15.35;12.05;;;;;;;;;;5011394;28;20037;-81
2023/06/10 01:42:54;;;;;;;13.00;10.80;;;;;;;;;;5017833;28;20030;-80
2023/06/10 01:45:20;;;;;;;12.82;10.30;;;;;;;;;;5017965;28;20025;-80
2023/06/10 01:47:45;;;;;;;14.30;11.18;;;;;;;;;;5029694;28;20384;-81
2023/06/10 01:50:10;;;;;;;15.38;12.27;;;;;;;;;;5017855;28;20041;-79
2023/06/10 01:52:36;;;;;;;19.80;14.32;;;;;;;;;;5017321;28;20025;-81
2023/06/10 01:55:01;;;;;;;18.02;15.07;;;;;;;;;;5016466;28;20030;-80
2023/06/10 01:57:26;;;;;;;27.15;14.95;;;;;;;;;;5012327;28;20037;-80
2023/06/10 01:59:51;;;;;;;16.08;13.13;;;;;;;;;;5006273;28;20046;-80
2023/06/10 02:02:17;;;;;;;22.00;14.43;;;;;;;;;;5011409;28;20033;-80
2023/06/10 02:04:42;;;;;;;17.63;14.50;;;;;;;;;;5006795;28;20382;-79
2023/06/10 02:07:07;;;;;;;19.60;14.65;;;;;;;;;;5004337;28;21838;-80
2023/06/10 02:09:34;;;;;;;20.23;13.50;;;;;;;;;;5012788;28;20041;-81
2023/06/10 02:12:01;;;;;;;21.27;14.23;;;;;;;;;;5014903;28;20022;-80
2023/06/10 02:14:26;;;;;;;17.58;14.35;;;;;;;;;;5011047;28;20037;-80
2023/06/10 02:16:56;;;;;;;17.15;13.55;;;;;;;;;;5016235;28;20066;-81
2023/06/10 02:19:22;;;;;;;17.58;12.40;;;;;;;;;;5016003;28;20030;-81
2023/06/10 02:21:47;;;;;;;15.88;12.18;;;;;;;;;;5012269;28;20041;-80
2023/06/10 02:24:13;;;;;;;21.30;14.27;;;;;;;;;;5015776;28;20030;-80
2023/06/10 02:26:38;;;;;;;17.83;13.75;;;;;;;;;;5016355;28;20498;-80
2023/06/10 02:29:03;;;;;;;18.45;13.00;;;;;;;;;;5014352;28;20038;-81
2023/06/10 02:31:29;;;;;;;22.67;16.45;;;;;;;;;;5013596;28;20026;-81
2023/06/10 02:33:55;;;;;;;19.60;15.73;;;;;;;;;;5014905;28;20500;-81
2023/06/10 02:36:21;;;;;;;18.45;14.38;;;;;;;;;;5008731;28;20022;-82
2023/06/10 02:38:46;;;;;;;20.52;14.35;;;;;;;;;;5013108;28;20030;-83
2023/06/10 02:41:12;;;;;;;18.50;13.73;;;;;;;;;;5018713;28;20530;-83
2023/06/10 02:43:37;;;;;;;19.30;14.32;;;;;;;;;;5012413;28;20041;-82
2023/06/10 02:46:02;;;;;;;24.98;14.93;;;;;;;;;;5017634;28;20507;-81
2023/06/10 02:48:28;;;;;;;22.63;14.15;;;;;;;;;;5016414;28;20044;-81
2023/06/10 02:50:53;;;;;;;20.88;15.02;;;;;;;;;;5018553;28;20033;-81
2023/06/10 02:53:18;;;;;;;18.65;14.13;;;;;;;;;;5018104;28;20041;-79
2023/06/10 02:55:44;;;;;;;17.33;12.82;;;;;;;;;;5017928;28;20068;-83
2023/06/10 02:58:09;;;;;;;17.30;11.40;;;;;;;;;;5016410;28;20040;-78
2023/06/10 03:00:35;;;;;;;16.88;12.25;;;;;;;;;;5010074;28;20042;-78
2023/06/10 03:03:03;;;;;;;17.15;11.15;;;;;;;;;;5002203;28;20030;-80
2023/06/10 03:05:29;;;;;;;16.05;11.05;;;;;;;;;;5011431;28;20461;-78
2023/06/10 03:07:54;;;;;;;16.08;11.35;;;;;;;;;;5007795;28;20120;-80
2023/06/10 03:10:19;;;;;;;13.73;11.43;;;;;;;;;;5003603;28;20488;-79
2023/06/10 03:12:45;;;;;;;14.75;11.75;;;;;;;;;;4998445;28;20552;-79
2023/06/10 03:15:10;;;;;;;14.45;11.98;;;;;;;;;;5016856;28;20026;-80
2023/06/10 03:17:36;;;;;;;17.27;12.13;;;;;;;;;;5017687;28;20472;-80
2023/06/10 03:20:02;;;;;;;19.40;12.38;;;;;;;;;;5012159;28;20473;-80
2023/06/10 03:22:27;;;;;;;24.30;15.30;;;;;;;;;;5006349;28;20041;-81
2023/06/10 03:24:53;;;;;;;24.15;15.70;;;;;;;;;;5011124;28;20038;-81
2023/06/10 03:27:18;;;;;;;19.13;15.00;;;;;;;;;;5013376;28;20089;-81
2023/06/10 03:29:44;;;;;;;21.90;16.00;;;;;;;;;;5013368;28;20026;-80
2023/06/10 03:32:09;;;;;;;24.92;17.98;;;;;;;;;;5011910;28;20045;-80
2023/06/10 03:34:34;;;;;;;26.65;16.38;;;;;;;;;;5010301;28;20447;-81
2023/06/10 03:37:00;;;;;;;23.83;16.77;;;;;;;;;;5009710;28;20030;-81
2023/06/10 03:39:28;;;;;;;24.45;17.73;;;;;;;;;;5012477;28;20381;-81
2023/06/10 03:41:54;;;;;;;26.60;18.30;;;;;;;;;;5006694;28;20155;-81
2023/06/10 03:44:19;;;;;;;32.63;18.58;;;;;;;;;;5013532;28;20693;-80
2023/06/10 03:46:45;;;;;;;26.42;18.52;;;;;;;;;;5019464;28;20033;-82
2023/06/10 03:49:11;;;;;;;25.67;18.55;;;;;;;;;;5019088;28;20436;-83
2023/06/10 03:51:36;;;;;;;25.95;17.42;;;;;;;;;;5019125;28;20075;-82
2023/06/10 03:54:02;;;;;;;25.08;17.58;;;;;;;;;;5019550;28;20056;-80
2023/06/10 03:56:28;;;;;;;30.25;19.05;;;;;;;;;;5018499;28;20037;-83
2023/06/10 03:58:53;;;;;;;22.52;16.90;;;;;;;;;;5019017;28;20038;-81
2023/06/10 04:01:20;;;;;;;19.90;13.70;;;;;;;;;;5017812;28;20041;-81
2023/06/10 04:03:48;;;;;;;21.27;14.63;;;;;;;;;;5016783;28;20040;-80
2023/06/10 04:06:13;;;;;;;22.50;13.70;;;;;;;;;;5018997;28;20546;-82
2023/06/10 04:08:39;;;;;;;18.50;14.07;;;;;;;;;;5019068;28;20022;-81
2023/06/10 04:11:04;;;;;;;13.57;11.65;;;;;;;;;;5018469;28;20484;-82
2023/06/10 04:13:29;;;;;;;16.52;11.95;;;;;;;;;;5017734;28;20037;-82
2023/06/10 04:15:54;;;;;;;18.33;11.57;;;;;;;;;;5017853;28;20053;-83
2023/06/10 04:18:21;;;;;;;14.82;10.45;;;;;;;;;;5016349;28;20067;-82
2023/06/10 04:20:47;;;;;;;12.68;10.40;;;;;;;;;;5018124;28;20484;-81
2023/06/10 04:23:12;;;;;;;13.40;10.00;;;;;;;;;;5016079;28;20172;-81
2023/06/10 04:25:37;;;;;;;10.23;9.02;;;;;;;;;;5018170;28;20040;-82
2023/06/10 04:28:03;;;;;;;13.15;10.20;;;;;;;;;;5017594;28;20534;-83
2023/06/10 04:30:28;;;;;;;11.98;10.07;;;;;;;;;;5017158;28;20030;-81
2023/06/10 04:32:54;;;;;;;12.48;9.25;;;;;;;;;;5017632;28;20096;-82
2023/06/10 04:35:19;;;;;;;11.10;9.32;;;;;;;;;;5017568;28;20443;-82
2023/06/10 04:37:45;;;;;;;9.63;8.23;;;;;;;;;;5017593;28;20030;-78
2023/06/10 04:40:10;;;;;;;11.82;8.35;;;;;;;;;;5017667;28;20034;-82
2023/06/10 04:42:36;;;;;;;11.68;8.32;;;;;;;;;;5017649;28;20033;-79
2023/06/10 04:45:05;;;;;;;13.38;8.25;;;;;;;;;;5025308;28;20045;-79
2023/06/10 04:47:33;;;;;;;9.85;8.35;;;;;;;;;;5014748;28;20030;-78
2023/06/10 04:50:00;;;;;;;9.38;8.30;;;;;;;;;;5017725;28;20060;-79
2023/06/10 04:52:26;;;;;;;13.07;8.63;;;;;;;;;;5017233;28;20448;-78
2023/06/10 04:54:52;;;;;;;10.68;7.57;;;;;;;;;;5017947;28;20181;-78
2023/06/10 04:57:17;;;;;;;11.02;7.82;;;;;;;;;;5034800;28;20024;-79
2023/06/10 04:59:42;;;;;;;12.40;7.30;;;;;;;;;;5033435;28;20030;-79
2023/06/10 05:02:07;;;;;;;8.95;7.70;;;;;;;;;;5017422;28;20037;-78
2023/06/10 05:04:33;;;;;;;10.13;7.63;;;;;;;;;;5018317;28;20073;-78
2023/06/10 05:06:58;;;;;;;8.43;7.13;;;;;;;;;;5019028;28;20026;-78
2023/06/10 05:09:23;;;;;;;9.35;7.32;;;;;;;;;;5018907;28;20440;-79
2023/06/10 05:11:49;;;;;;;8.80;7.10;;;;;;;;;;5019574;28;20045;-79
2023/06/10 05:14:16;;;;;;;10.45;7.70;;;;;;;;;;5019555;28;20037;-79
2023/06/10 05:16:43;;;;;;;8.73;6.88;;;;;;;;;;5019281;28;20026;-79
2023/06/10 05:19:08;;;;;;;8.05;7.03;;;;;;;;;;5010628;28;20125;-79
2023/06/10 05:21:33;;;;;;;11.35;7.53;;;;;;;;;;5014122;28;20072;-78
2023/06/10 05:23:59;;;;;;;10.35;7.97;;;;;;;;;;5017271;28;20120;-78
2023/06/10 05:26:25;;;;;;;8.95;7.32;;;;;;;;;;5007513;28;20042;-79
2023/06/10 05:28:50;;;;;;;8.48;7.00;;;;;;;;;;5011110;28;20033;-79
2023/06/10 05:31:15;;;;;;;9.30;6.93;;;;;;;;;;5007219;28;20481;-79
2023/06/10 05:33:41;;;;;;;13.90;7.22;;;;;;;;;;5004964;28;20497;-82
2023/06/10 05:36:06;;;;;;;11.48;7.88;;;;;;;;;;5003127;28;20034;-80
2023/06/10 05:38:31;;;;;;;17.73;7.88;;;;;;;;;;5005229;28;20042;-83
2023/06/10 05:40:58;;;;;;;10.38;7.15;;;;;;;;;;5011156;28;20041;-80
2023/06/10 05:43:23;;;;;;;8.30;7.30;;;;;;;;;;5003613;28;20061;-81
2023/06/10 05:45:49;;;;;;;8.43;7.35;;;;;;;;;;5008857;28;20044;-81
2023/06/10 05:48:14;;;;;;;11.18;7.60;;;;;;;;;;5008233;28;20076;-81
2023/06/10 05:50:42;;;;;;;11.45;7.82;;;;;;;;;;4999290;28;20061;-82
2023/06/10 05:53:14;;;;;;;12.93;7.72;;;;;;;;;;5008993;28;20040;-79
2023/06/10 05:55:40;;;;;;;24.42;7.82;;;;;;;;;;5010242;28;20041;-82
2023/06/10 05:58:05;;;;;;;12.07;7.40;;;;;;;;;;5013142;28;20042;-82
2023/06/10 06:00:30;;;;;;;8.88;7.75;;;;;;;;;;5007711;28;20044;-83
2023/06/10 06:02:58;;;;;;;10.38;7.22;;;;;;;;;;5003271;28;20034;-83
2023/06/10 06:05:24;;;;;;;7.88;6.80;;;;;;;;;;5005992;28;20041;-83
2023/06/10 06:07:50;;;;;;;10.98;7.25;;;;;;;;;;4999094;28;20037;-84
2023/06/10 06:10:17;;;;;;;13.50;6.78;;;;;;;;;;5005519;28;20044;-84
2023/06/10 06:12:42;;;;;;;12.70;7.15;;;;;;;;;;5001615;28;20041;-83
2023/06/10 06:15:08;;;;;;;13.27;7.50;;;;;;;;;;5011324;28;20025;-83
2023/06/10 06:17:33;;;;;;;8.02;7.22;;;;;;;;;;5008356;28;20029;-82
2023/06/10 06:19:59;;;;;;;8.43;6.95;;;;;;;;;;5005161;28;20366;-84
2023/06/10 06:22:24;;;;;;;9.23;7.00;;;;;;;;;;5008942;28;20117;-83
2023/06/10 06:24:49;;;;;;;9.98;6.82;;;;;;;;;;5010305;28;20045;-83
2023/06/10 06:27:15;;;;;;;10.25;6.65;;;;;;;;;;5003917;28;20471;-83
2023/06/10 06:29:41;;;;;;;9.23;7.35;;;;;;;;;;5007798;28;20491;-81
2023/06/10 06:32:06;;;;;;;8.60;7.00;;;;;;;;;;5003164;28;20060;-84
2023/06/10 06:34:33;;;;;;;8.02;7.20;;;;;;;;;;5002458;28;20041;-82
2023/06/10 06:36:58;;;;;;;7.97;6.70;;;;;;;;;;5000877;28;20030;-83
2023/06/10 06:39:23;;;;;;;9.30;6.80;;;;;;;;;;5004171;28;20504;-83
2023/06/10 06:41:49;;;;;;;8.20;6.93;;;;;;;;;;5006495;28;20026;-83
2023/06/10 06:44:14;;;;;;;10.98;7.30;;;;;;;;;;5002239;28;20054;-82
2023/06/10 06:46:39;;;;;;;7.25;6.47;;;;;;;;;;5000245;28;20022;-82
2023/06/10 06:49:05;;;;;;;7.47;6.45;;;;;;;;;;5002901;28;20252;-81
2023/06/10 06:51:30;;;;;;;6.50;5.72;;;;;;;;;;5009918;28;20622;-81
2023/06/10 06:53:58;;;;;;;8.90;6.38;;;;;;;;;;5015205;28;20037;-82
2023/06/10 06:56:23;;;;;;;7.35;5.85;;;;;;;;;;5013685;28;20034;-81
2023/06/10 06:58:49;;;;;;;8.25;6.28;;;;;;;;;;5010362;28;20643;-80
2023/06/10 07:01:14;;;;;;;8.20;5.97;;;;;;;;;;5009920;28;20026;-81
2023/06/10 07:03:39;;;;;;;8.48;6.20;;;;;;;;;;5014581;28;20030;-81
2023/06/10 07:06:04;;;;;;;6.10;5.50;;;;;;;;;;5006312;28;20057;-82
2023/06/10 07:08:30;;;;;;;7.75;6.03;;;;;;;;;;5010711;28;20458;-82
2023/06/10 07:10:55;;;;;;;8.07;6.13;;;;;;;;;;5002728;28;20038;-82
2023/06/10 07:13:21;;;;;;;12.75;5.90;;;;;;;;;;5007891;28;20109;-81
2023/06/10 07:15:46;;;;;;;6.72;6.00;;;;;;;;;;5008377;28;20097;-81
2023/06/10 07:18:11;;;;;;;7.05;5.95;;;;;;;;;;5013251;28;20467;-82
2023/06/10 07:20:37;;;;;;;12.20;5.80;;;;;;;;;;5015332;28;20033;-80
2023/06/10 07:23:02;;;;;;;7.15;6.25;;;;;;;;;;5009354;28;20595;-82
2023/06/10 07:25:27;;;;;;;7.53;6.47;;;;;;;;;;5005667;28;20050;-81
2023/06/10 07:27:52;;;;;;;7.90;6.10;;;;;;;;;;5016457;28;20038;-80
2023/06/10 07:30:18;;;;;;;8.52;6.68;;;;;;;;;;5017391;28;20026;-80
2023/06/10 07:32:43;;;;;;;11.45;6.18;;;;;;;;;;5020497;28;20018;-81
2023/06/10 07:35:11;;;;;;;6.32;5.68;;;;;;;;;;5019812;28;20051;-81
2023/06/10 07:37:36;;;;;;;7.30;5.97;;;;;;;;;;5017836;28;20114;-81
2023/06/10 07:40:01;;;;;;;9.18;6.35;;;;;;;;;;5027664;28;20058;-81
2023/06/10 07:42:27;;;;;;;7.60;6.00;;;;;;;;;;5019061;28;20050;-81
2023/06/10 07:44:52;;;;;;;8.20;6.63;;;;;;;;;;5026179;28;20477;-80
2023/06/10 07:47:18;;;;;;;7.20;6.30;;;;;;;;;;5021040;28;20010;-80
2023/06/10 07:49:43;;;;;;;7.03;6.25;;;;;;;;;;5023813;28;20061;-79
2023/06/10 07:52:08;;;;;;;7.72;5.50;;;;;;;;;;5010948;28;20038;-81
2023/06/10 07:54:34;;;;;;;8.68;6.00;;;;;;;;;;5023313;28;20273;-81
2023/06/10 07:56:59;;;;;;;9.27;6.03;;;;;;;;;;5010577;28;20465;-80
2023/06/10 07:59:26;;;;;;;6.80;5.90;;;;;;;;;;5011771;28;20034;-81
2023/06/10 08:01:51;;;;;;;6.47;5.50;;;;;;;;;;5019654;28;20041;-80
2023/06/10 08:04:16;;;;;;;6.32;5.72;;;;;;;;;;5027566;28;20025;-80
2023/06/10 08:06:42;;;;;;;5.75;5.05;;;;;;;;;;5018598;28;20026;-81
2023/06/10 08:09:07;;;;;;;6.47;5.63;;;;;;;;;;5018271;28;20021;-81
2023/06/10 08:11:32;;;;;;;8.32;6.35;;;;;;;;;;5024187;28;20045;-81
2023/06/10 08:13:58;;;;;;;9.27;6.22;;;;;;;;;;5019596;28;20033;-80
2023/06/10 08:16:23;;;;;;;5.80;5.20;;;;;;;;;;5007728;28;20033;-80
2023/06/10 08:18:50;;;;;;;7.35;5.70;;;;;;;;;;5020849;28;20066;-78
2023/06/10 08:21:15;;;;;;;5.57;5.07;;;;;;;;;;5021493;28;20041;-78
2023/06/10 08:23:41;;;;;;;5.85;5.00;;;;;;;;;;5021989;28;20026;-77
2023/06/10 08:26:06;;;;;;;6.50;5.00;;;;;;;;;;5016756;28;20530;-78
2023/06/10 08:28:31;;;;;;;7.50;5.10;;;;;;;;;;5029370;28;20057;-80
2023/06/10 08:30:59;;;;;;;5.80;5.20;;;;;;;;;;5009765;28;20042;-81
2023/06/10 08:33:25;;;;;;;5.68;5.00;;;;;;;;;;5012344;28;20121;-79
2023/06/10 08:35:50;;;;;;;6.68;5.63;;;;;;;;;;5014617;28;20565;-79
2023/06/10 08:38:16;;;;;;;6.55;5.20;;;;;;;;;;5012957;28;20031;-77
2023/06/10 08:40:41;;;;;;;14.63;5.15;;;;;;;;;;5005208;28;20053;-77
2023/06/10 08:43:08;;;;;;;7.10;4.43;;;;;;;;;;5021344;28;20092;-78
2023/06/10 08:45:35;;;;;;;7.63;5.70;;;;;;;;;;5014845;28;20049;-77
2023/06/10 08:48:06;;;;;;;5.88;4.55;;;;;;;;;;5010520;28;20030;-78
2023/06/10 08:50:36;;;;;;;8.55;5.90;;;;;;;;;;5007159;28;20054;-78
2023/06/10 08:53:04;;;;;;;6.35;5.72;;;;;;;;;;5013006;28;20033;-78
2023/06/10 08:55:32;;;;;;;9.55;5.90;;;;;;;;;;5015986;28;20068;-79
2023/06/10 08:57:59;;;;;;;7.68;4.60;;;;;;;;;;5018292;28;20041;-78
2023/06/10 09:00:26;;;;;;;5.75;5.25;;;;;;;;;;5015180;28;20095;-78
2023/06/10 09:02:51;;;;;;;5.05;4.50;;;;;;;;;;5010787;28;20026;-79
2023/06/10 09:05:17;;;;;;;7.15;5.60;;;;;;;;;;5014226;28;20044;-78
2023/06/10 09:07:42;;;;;;;6.32;4.40;;;;;;;;;;5009731;28;20132;-79
2023/06/10 09:10:08;;;;;;;6.43;5.25;;;;;;;;;;5010806;28;20034;-78
2023/06/10 09:12:43;;;;;;;5.57;4.60;;;;;;;;;;5012252;28;20034;-78
2023/06/10 09:15:08;;;;;;;5.53;4.57;;;;;;;;;;5006216;28;20018;-78
2023/06/10 09:17:36;;;;;;;5.20;4.70;;;;;;;;;;5015715;28;20084;-78
2023/06/10 09:20:02;;;;;;;5.25;4.60;;;;;;;;;;5016042;28;20050;-78
2023/06/10 09:22:28;;;;;;;6.88;4.70;;;;;;;;;;5013086;28;20038;-79
2023/06/10 09:25:10;;;;;;;7.35;4.45;;;;;;;;;;5012912;28;20165;-78
2023/06/10 09:27:50;;;;;;;4.60;4.25;;;;;;;;;;5013951;28;20056;-78
2023/06/10 09:30:30;;;;;;;4.72;4.30;;;;;;;;;;5019171;28;20560;-78
2023/06/10 09:32:57;;;;;;;4.95;4.45;;;;;;;;;;5017804;28;20045;-81
2023/06/10 09:35:27;;;;;;;4.40;4.00;;;;;;;;;;5014611;28;20038;-79
2023/06/10 09:37:57;;;;;;;6.72;5.07;;;;;;;;;;5032981;28;20345;-80
2023/06/10 09:40:23;;;;;;;5.13;4.43;;;;;;;;;;5013942;28;20034;-81
2023/06/10 09:42:57;;;;;;;5.97;4.40;;;;;;;;;;5032043;23;20030;-79
2023/06/10 09:45:23;;;;;;;5.03;4.50;;;;;;;;;;4971804;28;20123;-79
2023/06/10 09:47:52;;;;;;;5.18;4.68;;;;;;;;;;4974769;28;20015;-79
2023/06/10 09:50:17;;;;;;;5.88;4.72;;;;;;;;;;4974849;28;20102;-79
2023/06/10 09:52:45;;;;;;;5.63;4.55;;;;;;;;;;4974464;28;20069;-79
2023/06/10 09:55:11;;;;;;;6.20;4.80;;;;;;;;;;4985573;28;20496;-79
2023/06/10 09:57:36;;;;;;;5.75;4.75;;;;;;;;;;4975502;28;20081;-79
2023/06/10 10:00:07;;;;;;;10.68;5.03;;;;;;;;;;4974806;28;20057;-79
2023/06/10 10:02:43;;;;;;;4.43;4.03;;;;;;;;;;4975298;28;20043;-79
2023/06/10 10:05:08;;;;;;;9.10;4.35;;;;;;;;;;4974185;28;20026;-80
2023/06/10 10:07:33;;;;;;;5.10;4.60;;;;;;;;;;4970666;28;20170;-79
2023/06/10 10:09:59;;;;;;;4.75;4.28;;;;;;;;;;4971526;28;20035;-79
2023/06/10 10:12:25;;;;;;;5.63;5.07;;;;;;;;;;4973070;28;20560;-79
2023/06/10 10:14:52;;;;;;;4.90;4.35;;;;;;;;;;4965602;28;20033;-79
2023/06/10 10:17:20;;;;;;;6.72;4.25;;;;;;;;;;4970393;28;20485;-79
2023/06/10 10:19:53;;;;;;;4.93;4.40;;;;;;;;;;4969025;28;20038;-79
2023/06/10 10:22:25;;;;;;;4.65;4.25;;;;;;;;;;4973934;28;20054;-79
2023/06/10 10:24:55;;;;;;;5.43;4.50;;;;;;;;;;4969889;28;20053;-79
2023/06/10 10:27:28;;;;;;;4.63;4.22;;;;;;;;;;4973454;28;20038;-79
2023/06/10 10:29:54;;;;;;;4.97;4.47;;;;;;;;;;4976078;28;20082;-79
2023/06/10 10:32:27;;;;;;;4.78;4.28;;;;;;;;;;4975677;28;20058;-78
2023/06/10 10:34:58;;;;;;;4.35;3.95;;;;;;;;;;4974814;28;20031;-79
2023/06/10 10:37:24;;;;;;;4.63;4.10;;;;;;;;;;4975947;28;20395;-80
2023/06/10 10:39:50;;;;;;;4.90;4.00;;;;;;;;;;4977003;28;20039;-79
2023/06/10 10:42:16;;;;;;;4.55;4.13;;;;;;;;;;4975881;28;20023;-79
2023/06/10 10:44:42;;;;;;;4.30;3.90;;;;;;;;;;4977761;28;20041;-79
2023/06/10 10:47:11;;;;;;;8.25;4.55;;;;;;;;;;4975801;28;20553;-79
2023/06/10 10:49:37;;;;;;;4.70;4.10;;;;;;;;;;4971389;28;20102;-79
2023/06/10 10:52:06;;;;;;;5.40;4.50;;;;;;;;;;4976264;28;20031;-79
2023/06/10 10:54:33;;;;;;;5.35;4.30;;;;;;;;;;4974780;28;20567;-79
2023/06/10 10:57:19;;;;;;;4.40;4.00;;;;;;;;;;4976919;28;20022;-79
2023/06/10 10:59:45;;;;;;;6.43;5.07;;;;;;;;;;4973807;28;20046;-79
2023/06/10 11:02:16;;;;;;;7.85;4.32;;;;;;;;;;4976757;28;20098;-79
2023/06/10 11:04:47;;;;;;;4.60;4.20;;;;;;;;;;4974875;28;20093;-79
2023/06/10 11:07:15;;;;;;;6.55;4.13;;;;;;;;;;4972527;28;20133;-79
2023/06/10 11:09:59;;;;;;;6.28;4.18;;;;;;;;;;4975525;28;20121;-79
2023/06/10 11:12:24;;;;;;;4.60;4.20;;;;;;;;;;4976636;28;20401;-79
2023/06/10 11:14:56;;;;;;;11.70;4.80;;;;;;;;;;4976583;28;20029;-79
2023/06/10 11:17:21;;;;;;;6.32;4.80;;;;;;;;;;4975167;28;20545;-79
2023/06/10 11:19:47;;;;;;;6.43;4.75;;;;;;;;;;4975857;28;20043;-79
2023/06/10 11:22:18;;;;;;;4.07;3.78;;;;;;;;;;4975556;28;20501;-79
2023/06/10 11:24:50;;;;;;;7.25;4.25;;;;;;;;;;4974576;28;20047;-78
2023/06/10 11:27:20;;;;;;;4.28;3.88;;;;;;;;;;4975834;28;20470;-78
2023/06/10 11:30:17;;;;;;;4.55;4.15;;;;;;;;;;4971127;28;20473;-79
2023/06/10 11:32:43;;;;;;;4.35;3.83;;;;;;;;;;4975874;28;20031;-78
2023/06/10 11:35:08;;;;;;;4.40;4.00;;;;;;;;;;4973523;28;20042;-79
2023/06/10 11:37:33;;;;;;;4.97;3.75;;;;;;;;;;4972687;28;20047;-79
2023/06/10 11:39:59;;;;;;;3.78;3.47;;;;;;;;;;4974870;28;20392;-79
2023/06/10 11:42:24;;;;;;;4.38;3.97;;;;;;;;;;4973159;28;20632;-79
2023/06/10 11:44:51;;;;;;;3.97;3.30;;;;;;;;;;4976627;28;20085;-78
2023/06/10 11:47:17;;;;;;;3.80;3.50;;;;;;;;;;4969041;28;20057;-78
2023/06/10 11:49:42;;;;;;;3.65;3.30;;;;;;;;;;4972863;28;20046;-78
2023/06/10 11:52:08;;;;;;;3.75;3.45;;;;;;;;;;4976299;28;20038;-78
2023/06/10 11:54:33;;;;;;;3.88;3.58;;;;;;;;;;4975707;28;20054;-79
2023/06/10 11:57:00;;;;;;;6.97;3.28;;;;;;;;;;4973104;28;20174;-78
2023/06/10 11:59:27;;;;;;;5.90;3.50;;;;;;;;;;4987078;28;20027;-78
2023/06/10 12:01:52;;;;;;;7.90;4.03;;;;;;;;;;4966855;28;20035;-78
2023/06/10 12:04:18;;;;;;;5.25;3.60;;;;;;;;;;4984440;28;20882;-78
2023/06/10 12:06:48;;;;;;;5.85;3.50;;;;;;;;;;4984874;28;20523;-78
2023/06/10 12:09:20;;;;;;;3.70;3.33;;;;;;;;;;4989947;28;20449;-78
2023/06/10 12:11:49;;;;;;;3.83;3.40;;;;;;;;;;4973676;28;20393;-78
2023/06/10 12:14:14;;;;;;;3.22;3.00;;;;;;;;;;4974043;28;20035;-79
2023/06/10 12:16:40;;;;;;;4.13;3.72;;;;;;;;;;4981712;28;20035;-79
2023/06/10 12:19:06;;;;;;;3.25;3.03;;;;;;;;;;4977112;28;20452;-79
2023/06/10 12:21:33;;;;;;;5.50;3.58;;;;;;;;;;4979441;28;20054;-78
2023/06/10 12:24:11;;;;;;;3.97;3.00;;;;;;;;;;4976843;28;20038;-79
2023/06/10 12:26:40;;;;;;;3.28;3.08;;;;;;;;;;4989068;28;20093;-79
2023/06/10 12:29:24;;;;;;;3.75;3.45;;;;;;;;;;4978290;28;20027;-78
2023/06/10 12:32:02;;;;;;;3.50;3.20;;;;;;;;;;4979233;28;20057;-79
2023/06/10 12:34:33;;;;;;;4.63;3.20;;;;;;;;;;4975796;28;20046;-79
2023/06/10 12:36:58;;;;;;;3.50;3.20;;;;;;;;;;4973685;28;20567;-78
2023/06/10 12:39:24;;;;;;;3.45;3.15;;;;;;;;;;4974084;28;20042;-78
2023/06/10 12:41:51;;;;;;;3.80;3.40;;;;;;;;;;4991483;28;20038;-78
2023/06/10 12:44:16;;;;;;;4.50;3.67;;;;;;;;;;4970063;28;20039;-78
2023/06/10 12:46:41;;;;;;;5.88;3.30;;;;;;;;;;4971525;28;20061;-78
2023/06/10 12:49:07;;;;;;;4.30;3.67;;;;;;;;;;4975301;28;20694;-79
2023/06/10 12:51:34;;;;;;;4.43;3.60;;;;;;;;;;4977446;28;20046;-79
2023/06/10 12:54:00;;;;;;;3.63;3.33;;;;;;;;;;4975712;28;20117;-78
2023/06/10 12:56:25;;;;;;;3.53;3.22;;;;;;;;;;4977192;28;20165;-79
2023/06/10 12:58:50;;;;;;;3.30;3.00;;;;;;;;;;4972723;28;20054;-78
2023/06/10 13:01:15;;;;;;;3.80;3.50;;;;;;;;;;4980814;28;20393;-79
2023/06/10 13:03:41;;;;;;;3.38;3.08;;;;;;;;;;4978052;28;20043;-78
2023/06/10 13:06:07;;;;;;;4.68;3.72;;;;;;;;;;4972979;28;20031;-78
2023/06/10 13:08:32;;;;;;;3.20;2.97;;;;;;;;;;4975086;28;20023;-79
2023/06/10 13:10:58;;;;;;;4.18;3.10;;;;;;;;;;4969021;28;20042;-78
2023/06/10 13:13:24;;;;;;;4.78;3.83;;;;;;;;;;4969089;28;20130;-79
2023/06/10 13:15:49;;;;;;;4.55;3.20;;;;;;;;;;4968554;28;20051;-78
2023/06/10 13:18:15;;;;;;;3.67;2.50;;;;;;;;;;4967910;28;20070;-78
2023/06/10 13:20:40;;;;;;;3.38;3.08;;;;;;;;;;4974676;28;20030;-79
2023/06/10 13:23:06;;;;;;;3.00;2.80;;;;;;;;;;4965326;28;20490;-78
2023/06/10 13:25:32;;;;;;;3.55;3.22;;;;;;;;;;4971328;28;20039;-78
2023/06/10 13:27:57;;;;;;;3.33;3.03;;;;;;;;;;4965829;28;20152;-78
2023/06/10 13:30:23;;;;;;;3.85;3.15;;;;;;;;;;4974369;28;20043;-78
2023/06/10 13:32:48;;;;;;;3.38;3.08;;;;;;;;;;4973461;28;20465;-78
2023/06/10 13:35:13;;;;;;;5.90;3.42;;;;;;;;;;4967575;28;20039;-78
2023/06/10 13:37:38;;;;;;;3.75;3.30;;;;;;;;;;4972239;28;20567;-78
2023/06/10 13:40:05;;;;;;;9.15;3.58;;;;;;;;;;4973609;28;20038;-79
2023/06/10 13:42:30;;;;;;;3.20;2.88;;;;;;;;;;4976319;28;20109;-78
2023/06/10 13:44:56;;;;;;;5.03;3.33;;;;;;;;;;4976971;28;20027;-78
2023/06/10 13:47:21;;;;;;;3.55;3.25;;;;;;;;;;4974051;28;20440;-78
2023/06/10 13:49:47;;;;;;;6.53;3.50;;;;;;;;;;4974572;28;20470;-78
2023/06/10 13:52:12;;;;;;;3.60;3.30;;;;;;;;;;4973761;28;20575;-78
2023/06/10 13:54:37;;;;;;;3.60;3.22;;;;;;;;;;4973325;28;20405;-78
2023/06/10 13:57:03;;;;;;;3.88;3.47;;;;;;;;;;4976713;28;20546;-79
2023/06/10 13:59:28;;;;;;;3.90;3.28;;;;;;;;;;4970153;28;20094;-79
2023/06/10 14:01:54;;;;;;;3.30;3.00;;;;;;;;;;4975389;28;20472;-78
2023/06/10 14:04:19;;;;;;;3.05;2.85;;;;;;;;;;4976752;28;20048;-79
2023/06/10 14:06:45;;;;;;;3.67;3.28;;;;;;;;;;4977111;28;20035;-78
2023/06/10 14:09:12;;;;;;;4.68;3.20;;;;;;;;;;4969199;28;20533;-79
2023/06/10 14:11:37;;;;;;;3.15;2.95;;;;;;;;;;4966897;28;20045;-79
2023/06/10 14:14:02;;;;;;;3.80;3.15;;;;;;;;;;4967914;28;20028;-79
2023/06/10 14:16:28;;;;;;;3.35;3.05;;;;;;;;;;4966678;28;20039;-78
2023/06/10 14:18:53;;;;;;;4.78;2.90;;;;;;;;;;4968245;28;20137;-79
2023/06/10 14:21:19;;;;;;;2.78;2.58;;;;;;;;;;4966877;28;20053;-78
2023/06/10 14:23:45;;;;;;;2.95;2.75;;;;;;;;;;4972237;28;20034;-78
2023/06/10 14:26:10;;;;;;;5.03;3.20;;;;;;;;;;4972617;28;20082;-78
2023/06/10 14:28:35;;;;;;;3.60;3.30;;;;;;;;;;4973911;28;20035;-78
2023/06/10 14:31:01;;;;;;;3.20;2.90;;;;;;;;;;4969999;28;20137;-78